Time;durP1;ratioP1;P1;durP2;ratioP2;P2;SDS_P1;SDS_P2;PMS_P1;PMS_P2;Temp;Humidity;BMP_temperature;BMP_pressure;BME280_temperature;BME280_humidity;BME280_pressure;Samples;Min_cycle;Max_cycle;Signal;HPM_P1;HPM_P2
2022/03/27 00:02:27;;;;;;;33.08;17.67;;;;;;;2.11;63.82;94084.81;5011489;28;20088;-76
2022/03/27 00:04:54;;;;;;;39.92;18.20;;;;;;;2.19;62.73;94086.66;5011346;28;20048;-76
2022/03/27 00:07:21;;;;;;;35.20;18.38;;;;;;;2.21;62.70;94081.44;5011464;28;20045;-76
2022/03/27 00:09:47;;;;;;;21.15;11.48;;;;;;;2.16;67.27;94074.25;5011038;28;20542;-76
2022/03/27 00:12:14;;;;;;;26.52;14.32;;;;;;;2.11;66.69;94082.28;5011297;28;20037;-76
2022/03/27 00:14:41;;;;;;;32.45;15.20;;;;;;;2.21;64.68;94072.09;5011378;28;20141;-76
2022/03/27 00:17:08;;;;;;;29.00;15.27;;;;;;;2.23;64.19;94071.97;5011564;28;20529;-76
2022/03/27 00:19:36;;;;;;;29.50;16.90;;;;;;;2.22;64.62;94078.00;5011272;28;20046;-76
2022/03/27 00:22:05;;;;;;;29.80;14.45;;;;;;;2.25;64.62;94077.69;5011332;28;20549;-76
2022/03/27 00:24:32;;;;;;;27.63;13.68;;;;;;;2.29;64.19;94081.56;5011120;28;20133;-76
2022/03/27 00:26:59;;;;;;;28.73;13.88;;;;;;;2.35;63.22;94078.47;5000212;28;20048;-76
2022/03/27 00:29:25;;;;;;;29.08;14.00;;;;;;;2.38;63.16;94067.28;5010332;28;20041;-76
2022/03/27 00:31:53;;;;;;;29.20;15.70;;;;;;;2.31;63.82;94084.75;5010878;28;20537;-76
2022/03/27 00:34:21;;;;;;;30.17;15.05;;;;;;;2.16;62.93;94058.25;5010990;28;20132;-76
2022/03/27 00:36:50;;;;;;;27.27;13.23;;;;;;;2.10;62.43;94047.72;5010878;28;20042;-76
2022/03/27 00:39:17;;;;;;;29.00;14.77;;;;;;;2.26;63.21;94067.44;5010670;28;20049;-76
2022/03/27 00:41:44;;;;;;;28.30;13.88;;;;;;;1.84;62.55;94004.41;5010846;28;20120;-76
2022/03/27 00:44:11;;;;;;;21.65;10.75;;;;;;;2.21;62.15;94068.75;5010723;28;20049;-76
2022/03/27 00:46:38;;;;;;;25.58;9.98;;;;;;;2.11;62.00;94063.72;5010784;28;20365;-76
2022/03/27 00:49:04;;;;;;;23.30;9.98;;;;;;;2.08;62.23;94059.72;5010701;28;20415;-76
2022/03/27 00:51:31;;;;;;;20.52;9.13;;;;;;;2.04;63.00;94050.00;5010784;28;20056;-76
2022/03/27 00:54:00;;;;;;;15.95;9.23;;;;;;;2.05;63.77;94054.94;5010287;28;20069;-76
2022/03/27 00:56:27;;;;;;;18.00;9.40;;;;;;;2.03;64.03;94056.00;5010436;28;20116;-76
2022/03/27 00:58:53;;;;;;;21.77;11.38;;;;;;;2.00;63.70;94057.88;5010547;28;20045;-76
2022/03/27 01:01:23;;;;;;;25.83;12.48;;;;;;;1.82;65.67;94041.75;5010346;28;20045;-76
2022/03/27 01:03:53;;;;;;;23.15;11.45;;;;;;;1.83;65.52;94050.97;5010368;28;20049;-76
2022/03/27 01:06:29;;;;;;;26.48;12.43;;;;;;;1.75;66.50;94033.91;5010270;28;20137;-76
2022/03/27 01:11:42;;;;;;;22.37;12.13;;;;;;;1.27;69.13;94025.38;5010209;28;20092;-76
2022/03/27 01:14:11;;;;;;;23.92;13.63;;;;;;;1.42;69.54;94053.63;5010347;28;20350;-76
2022/03/27 01:16:41;;;;;;;25.52;14.25;;;;;;;0.98;70.41;93998.31;5010219;28;20045;-75
2022/03/27 01:19:10;;;;;;;25.73;14.85;;;;;;;1.20;70.65;94032.69;5010140;28;20048;-76
2022/03/27 01:21:41;;;;;;;23.77;14.15;;;;;;;1.29;69.43;94034.44;5009987;28;20431;-75
2022/03/27 01:24:09;;;;;;;28.23;15.15;;;;;;;1.38;69.34;94032.84;5010142;28;20111;-75
2022/03/27 01:26:37;;;;;;;31.75;14.85;;;;;;;1.45;68.37;94035.66;5009885;28;20103;-76
2022/03/27 01:29:04;;;;;;;26.00;14.15;;;;;;;1.42;68.22;94015.63;5009980;28;20449;-75
2022/03/27 01:31:31;;;;;;;28.50;15.88;;;;;;;1.49;67.91;94036.97;5009870;28;20041;-76
2022/03/27 01:33:58;;;;;;;25.77;15.80;;;;;;;1.48;67.84;94027.75;5010058;28;20089;-76
2022/03/27 01:36:26;;;;;;;30.20;16.02;;;;;;;1.50;67.82;94023.38;5009829;28;20046;-76
2022/03/27 01:38:56;;;;;;;25.40;15.05;;;;;;;1.55;68.29;94035.63;5010057;28;20439;-76
2022/03/27 01:41:24;;;;;;;31.50;15.57;;;;;;;1.55;68.14;94033.09;5009993;28;20045;-76
2022/03/27 01:43:51;;;;;;;29.75;15.45;;;;;;;1.43;67.52;94012.97;5009623;28;20056;-76
2022/03/27 01:46:18;;;;;;;29.70;15.32;;;;;;;1.58;68.04;94027.78;5009675;28;20041;-76
2022/03/27 01:48:45;;;;;;;24.92;14.48;;;;;;;1.52;68.54;94031.63;5009791;28;20053;-76
2022/03/27 01:51:12;;;;;;;25.00;13.68;;;;;;;1.55;69.05;94026.31;5009516;28;20042;-76
2022/03/27 01:53:39;;;;;;;29.90;15.23;;;;;;;1.57;67.94;94032.03;5009733;28;20393;-76
2022/03/27 01:56:09;;;;;;;27.02;14.98;;;;;;;1.57;69.04;94036.31;5009248;28;20545;-76
2022/03/27 01:58:38;;;;;;;27.67;14.15;;;;;;;1.54;67.68;94029.78;5009453;28;20041;-76
2022/03/27 02:01:06;;;;;;;30.45;15.80;;;;;;;1.51;67.96;94024.97;5009694;28;20096;-76
2022/03/27 02:03:33;;;;;;;28.65;16.00;;;;;;;1.38;67.15;94011.81;5009439;28;20053;-76
2022/03/27 02:06:01;;;;;;;28.25;16.00;;;;;;;1.45;68.83;94038.97;5009699;28;20438;-77
2022/03/27 02:08:28;;;;;;;26.67;15.10;;;;;;;1.40;68.00;94031.00;5010061;28;20045;-76
2022/03/27 02:10:55;;;;;;;26.25;13.73;;;;;;;1.36;67.96;94034.72;5016234;28;20442;-76
2022/03/27 02:13:23;;;;;;;28.45;13.18;;;;;;;1.30;67.32;94025.13;5016074;28;20046;-76
2022/03/27 02:15:50;;;;;;;23.63;13.43;;;;;;;1.32;67.77;94028.31;5015888;28;20060;-76
2022/03/27 02:18:17;;;;;;;22.20;12.45;;;;;;;1.28;67.32;94026.97;5016084;28;20046;-76
2022/03/27 02:20:45;;;;;;;20.25;11.20;;;;;;;1.23;68.27;94034.97;5015947;28;20065;-76
2022/03/27 02:23:13;;;;;;;22.92;12.07;;;;;;;1.05;70.40;94024.66;5015715;28;20479;-76
2022/03/27 02:25:40;;;;;;;23.63;12.02;;;;;;;1.13;68.89;94046.78;5015931;28;20375;-76
2022/03/27 02:28:08;;;;;;;24.63;12.07;;;;;;;0.98;69.85;94026.94;5015719;28;20092;-76
2022/03/27 02:30:37;;;;;;;23.23;11.80;;;;;;;1.01;72.31;94036.78;5015975;28;20046;-76
2022/03/27 02:33:03;;;;;;;23.85;13.48;;;;;;;1.02;71.53;94045.19;5015983;28;20057;-76
2022/03/27 02:35:30;;;;;;;19.92;11.88;;;;;;;1.04;70.23;94036.53;5015822;28;20050;-76
2022/03/27 02:37:58;;;;;;;21.63;11.68;;;;;;;0.98;72.02;94042.13;5015894;28;20037;-76
2022/03/27 02:40:25;;;;;;;22.65;12.35;;;;;;;0.85;72.73;94052.47;5015554;28;20081;-76
2022/03/27 02:42:51;;;;;;;22.77;12.75;;;;;;;0.85;72.05;94044.06;5015567;28;20042;-76
2022/03/27 02:45:18;;;;;;;24.15;12.55;;;;;;;0.97;71.06;94053.16;5015969;28;20054;-76
2022/03/27 02:47:46;;;;;;;20.73;11.90;;;;;;;0.95;71.39;94054.22;5015627;28;20038;-76
2022/03/27 02:50:13;;;;;;;23.88;12.18;;;;;;;0.93;71.33;94051.84;5015817;28;20384;-76
2022/03/27 02:52:40;;;;;;;22.95;12.55;;;;;;;0.92;71.71;94060.31;5015707;28;20041;-76
2022/03/27 02:55:07;;;;;;;28.05;14.13;;;;;;;0.87;71.34;94054.84;5015731;28;20111;-77
2022/03/27 02:57:34;;;;;;;25.25;13.02;;;;;;;0.87;70.09;94062.44;5015520;28;20057;-77
2022/03/27 03:00:01;;;;;;;29.75;15.20;;;;;;;0.75;73.40;94064.28;5015506;28;20836;-76
2022/03/27 03:02:28;;;;;;;35.05;18.50;;;;;;;0.56;74.19;94047.31;5015253;28;20045;-77
2022/03/27 03:04:57;;;;;;;46.38;21.88;;;;;;;0.69;74.06;94073.16;5015716;28;20133;-77
2022/03/27 03:07:24;;;;;;;50.53;23.45;;;;;;;0.48;77.86;94068.16;5015370;28;20057;-77
2022/03/27 03:09:52;;;;;;;39.30;21.20;;;;;;;0.45;75.55;94058.28;5015618;28;20050;-77
2022/03/27 03:12:19;;;;;;;36.42;19.05;;;;;;;0.48;77.57;94076.56;5015492;28;20077;-76
2022/03/27 03:14:46;;;;;;;32.90;18.38;;;;;;;0.30;78.63;94071.28;5015513;28;20112;-76
2022/03/27 03:17:13;;;;;;;28.15;16.65;;;;;;;0.36;79.79;94064.91;5015659;28;20045;-76
2022/03/27 03:19:40;;;;;;;33.47;15.98;;;;;;;0.32;78.62;94066.88;5014908;28;20076;-76
2022/03/27 03:22:09;;;;;;;28.15;15.57;;;;;;;0.46;77.24;94068.28;5012072;28;20042;-77
2022/03/27 03:24:36;;;;;;;27.65;14.50;;;;;;;0.44;76.76;94074.38;5012602;28;20650;-77
2022/03/27 03:27:03;;;;;;;29.38;13.95;;;;;;;0.47;78.38;94074.16;5012931;28;20461;-76
2022/03/27 03:29:30;;;;;;;27.83;14.40;;;;;;;0.52;76.36;94072.81;5012873;28;20062;-77
2022/03/27 03:31:57;;;;;;;28.42;14.00;;;;;;;0.52;76.92;94072.03;5012811;28;20042;-76
2022/03/27 03:34:24;;;;;;;28.30;14.05;;;;;;;0.51;76.00;94076.28;5012813;28;20053;-77
2022/03/27 03:36:51;;;;;;;24.25;12.70;;;;;;;0.54;73.99;94075.25;5012609;28;20053;-77
2022/03/27 03:39:19;;;;;;;28.67;13.55;;;;;;;0.50;73.95;94068.81;5012781;28;20053;-76
2022/03/27 03:41:46;;;;;;;23.13;12.30;;;;;;;0.51;73.58;94076.28;5011697;28;20050;-77
2022/03/27 03:44:13;;;;;;;20.63;11.30;;;;;;;0.45;73.03;94066.69;5011711;28;20042;-76
2022/03/27 03:46:40;;;;;;;21.75;11.38;;;;;;;0.44;72.90;94071.84;5012014;28;20116;-76
2022/03/27 03:49:07;;;;;;;19.55;10.75;;;;;;;0.42;72.48;94077.06;5011429;28;20053;-77
2022/03/27 03:51:35;;;;;;;18.98;11.00;;;;;;;0.36;72.76;94073.31;5012001;28;20049;-77
2022/03/27 03:54:02;;;;;;;20.15;10.80;;;;;;;0.29;73.16;94073.91;5011855;28;20104;-77
2022/03/27 03:56:30;;;;;;;19.45;11.00;;;;;;;0.28;72.79;94078.19;5011514;28;20057;-77
2022/03/27 03:58:57;;;;;;;17.85;10.25;;;;;;;0.26;72.50;94078.31;5011510;28;20049;-77
2022/03/27 04:01:24;;;;;;;23.83;10.90;;;;;;;0.23;72.43;94077.75;5011718;28;20472;-77
2022/03/27 04:03:51;;;;;;;24.58;10.45;;;;;;;0.15;72.94;94080.09;5011591;28;20042;-77
2022/03/27 04:06:18;;;;;;;24.50;11.57;;;;;;;0.08;73.25;94079.78;5011630;28;20046;-76
2022/03/27 04:08:44;;;;;;;20.90;10.38;;;;;;;0.16;73.26;94099.38;5011233;28;20133;-76
2022/03/27 04:11:16;;;;;;;21.23;10.98;;;;;;;0.11;73.34;94087.13;5011729;28;20053;-76
2022/03/27 04:13:44;;;;;;;23.67;10.13;;;;;;;0.08;74.36;94097.47;5011494;28;20050;-76
2022/03/27 04:16:12;;;;;;;20.75;11.05;;;;;;;0.02;74.72;94093.72;5011340;28;20553;-76
2022/03/27 04:18:39;;;;;;;20.38;11.68;;;;;;;-0.10;75.42;94080.34;5011509;28;20048;-76
2022/03/27 04:21:06;;;;;;;32.50;16.33;;;;;;;-0.12;76.63;94092.28;5009902;28;20038;-76
2022/03/27 04:23:32;;;;;;;32.28;15.05;;;;;;;-0.19;78.73;94101.28;5008548;28;20041;-76
2022/03/27 04:25:59;;;;;;;30.00;15.30;;;;;;;-0.19;78.76;94101.28;5009559;28;20041;-76
2022/03/27 04:28:26;;;;;;;28.65;15.95;;;;;;;-0.47;80.61;94088.31;5011797;28;20050;-76
2022/03/27 04:30:54;;;;;;;31.30;18.48;;;;;;;-0.34;81.55;94103.28;5014773;28;20051;-76
2022/03/27 04:33:21;;;;;;;37.22;18.58;;;;;;;-0.43;80.33;94093.00;5028294;28;20498;-77
2022/03/27 04:35:49;;;;;;;43.38;20.98;;;;;;;-0.55;80.75;94073.75;5030490;28;20111;-76
2022/03/27 04:38:16;;;;;;;49.88;24.05;;;;;;;-0.48;83.61;94101.81;5030825;28;20037;-77
2022/03/27 04:40:43;;;;;;;52.35;23.70;;;;;;;-0.44;82.40;94104.00;5030525;28;20053;-77
2022/03/27 04:43:10;;;;;;;50.35;24.67;;;;;;;-0.44;82.31;94101.47;5022730;28;20092;-77
2022/03/27 04:45:37;;;;;;;51.45;25.02;;;;;;;-0.29;82.47;94117.16;5030625;28;20402;-76
2022/03/27 04:48:06;;;;;;;42.20;22.83;;;;;;;-0.23;80.85;94110.00;5030360;28;20478;-76
2022/03/27 04:50:32;;;;;;;42.88;22.25;;;;;;;-0.14;80.18;94111.78;5030325;28;20056;-77
2022/03/27 04:52:59;;;;;;;48.97;26.20;;;;;;;-0.21;80.68;94091.31;5030219;28;20061;-76
2022/03/27 04:55:26;;;;;;;49.92;25.45;;;;;;;0.03;78.49;94123.09;5030230;28;20415;-76
2022/03/27 04:57:53;;;;;;;50.33;29.35;;;;;;;0.08;79.79;94127.78;5030540;28;20103;-76
2022/03/27 05:00:20;;;;;;;42.70;23.48;;;;;;;0.18;78.08;94130.38;5016910;28;20072;-76
2022/03/27 05:02:47;;;;;;;43.45;23.50;;;;;;;0.18;77.62;94125.34;5010914;28;20046;-76
2022/03/27 05:05:15;;;;;;;38.90;19.65;;;;;;;0.29;76.04;94137.09;5010335;28;20100;-76
2022/03/27 05:07:44;;;;;;;38.25;19.77;;;;;;;0.38;75.89;94137.16;5010778;28;20050;-76
2022/03/27 05:10:12;;;;;;;42.92;19.73;;;;;;;0.41;75.82;94145.44;5010614;28;20390;-76
2022/03/27 05:12:39;;;;;;;31.98;16.02;;;;;;;0.48;74.58;94141.47;5010684;28;20038;-77
2022/03/27 05:15:09;;;;;;;30.42;16.77;;;;;;;0.59;74.65;94148.97;5010435;28;20049;-76
2022/03/27 05:17:49;;;;;;;46.58;21.75;;;;;;;0.62;75.23;94146.22;5010823;28;20046;-76
2022/03/27 05:20:18;;;;;;;39.67;21.38;;;;;;;0.68;75.85;94149.97;5010319;28;20038;-77
2022/03/27 05:22:45;;;;;;;36.55;20.38;;;;;;;0.76;75.86;94145.09;5009909;28;20045;-77
2022/03/27 05:25:13;;;;;;;37.63;21.58;;;;;;;0.62;75.84;94135.28;5010345;28;20041;-77
2022/03/27 05:27:44;;;;;;;70.90;36.00;;;;;;;0.28;79.43;94121.16;5010022;28;20042;-76
2022/03/27 05:30:11;;;;;;;56.92;31.95;;;;;;;0.73;77.12;94165.56;5010207;28;20046;-77
2022/03/27 05:32:38;;;;;;;55.28;30.65;;;;;;;0.85;77.82;94163.75;5010139;28;20408;-77
2022/03/27 05:35:07;;;;;;;54.40;31.80;;;;;;;1.12;75.76;94156.53;5009492;28;20518;-77
2022/03/27 05:37:38;;;;;;;49.17;31.33;;;;;;;1.33;76.14;94159.81;5010147;28;20112;-77
2022/03/27 05:40:06;;;;;;;57.03;33.45;;;;;;;1.53;76.47;94164.13;5009533;28;20046;-77
2022/03/27 05:42:33;;;;;;;46.88;27.50;;;;;;;1.42;77.40;94137.97;5010003;28;20087;-77
2022/03/27 05:45:00;;;;;;;46.90;26.23;;;;;;;1.65;77.50;94162.25;5007596;28;20050;-78
2022/03/27 05:47:27;;;;;;;37.80;23.10;;;;;;;1.81;74.44;94138.97;4989484;28;20474;-78
2022/03/27 05:49:54;;;;;;;33.38;19.00;;;;;;;2.16;74.21;94154.59;4989913;28;20085;-78
2022/03/27 05:52:22;;;;;;;50.08;21.38;;;;;;;2.30;74.22;94140.69;4990438;28;20463;-78
2022/03/27 05:54:51;;;;;;;35.15;20.55;;;;;;;2.46;71.65;94125.69;4990034;28;20048;-78
2022/03/27 05:57:18;;;;;;;30.65;17.25;;;;;;;2.46;73.74;94130.75;4989894;28;20042;-78
2022/03/27 05:59:45;;;;;;;30.60;17.80;;;;;;;2.82;73.23;94157.28;4989744;28;20057;-78
2022/03/27 06:02:13;;;;;;;42.53;29.02;;;;;;;2.93;71.76;94157.09;4990235;28;20381;-78
2022/03/27 06:04:40;;;;;;;62.45;38.70;;;;;;;2.77;73.99;94157.66;4989882;28;20480;-79
2022/03/27 06:07:07;;;;;;;49.55;28.23;;;;;;;2.84;73.40;94137.63;4994620;28;20478;-77
2022/03/27 06:09:35;;;;;;;63.95;44.83;;;;;;;2.68;75.26;94131.38;5009742;28;20045;-77
2022/03/27 06:12:04;;;;;;;77.28;44.67;;;;;;;3.03;73.69;94149.44;5009673;28;20422;-77
2022/03/27 06:14:31;;;;;;;41.05;23.35;;;;;;;3.20;74.94;94147.91;5010144;28;20046;-77
2022/03/27 06:16:59;;;;;;;47.83;26.60;;;;;;;3.61;70.65;94145.00;5009904;28;20061;-77
2022/03/27 06:19:26;;;;;;;45.10;21.63;;;;;;;3.90;69.78;94149.13;5009150;28;20045;-77
2022/03/27 06:21:53;;;;;;;32.58;17.60;;;;;;;3.88;70.53;94133.19;5009281;28;20049;-77
2022/03/27 06:24:20;;;;;;;33.15;17.40;;;;;;;4.41;68.71;94146.03;5009644;28;20081;-78
2022/03/27 06:26:46;;;;;;;32.33;16.60;;;;;;;4.70;64.63;94133.94;5008957;28;20046;-77
2022/03/27 06:29:14;;;;;;;30.63;17.20;;;;;;;5.14;63.51;94138.16;5009387;28;20046;-77
2022/03/27 06:31:42;;;;;;;34.00;19.20;;;;;;;5.49;62.17;94131.28;5009344;28;20048;-79
2022/03/27 06:34:09;;;;;;;37.60;18.33;;;;;;;5.84;60.87;94138.84;5009562;28;20084;-78
2022/03/27 06:36:36;;;;;;;37.28;16.52;;;;;;;5.98;60.02;94134.88;5009845;28;20046;-78
2022/03/27 06:39:04;;;;;;;29.23;15.63;;;;;;;6.24;59.40;94144.97;5009204;28;20057;-78
2022/03/27 06:41:31;;;;;;;26.83;14.45;;;;;;;6.50;58.31;94144.00;5009474;28;20053;-79
2022/03/27 06:43:58;;;;;;;29.85;15.32;;;;;;;6.89;57.74;94141.72;5009156;28;20077;-78
2022/03/27 06:46:27;;;;;;;30.40;16.73;;;;;;;7.03;56.09;94112.13;5009201;28;20050;-78
2022/03/27 06:48:54;;;;;;;39.72;21.85;;;;;;;7.37;55.81;94136.59;5009374;28;20090;-79
2022/03/27 06:51:21;;;;;;;34.80;19.08;;;;;;;7.56;55.02;94124.38;5009135;28;20057;-79
2022/03/27 06:53:48;;;;;;;35.88;18.30;;;;;;;7.85;54.19;94130.59;5009219;28;20042;-79
2022/03/27 06:56:15;;;;;;;39.90;19.77;;;;;;;8.10;52.94;94118.41;5012006;28;20057;-79
2022/03/27 06:58:42;;;;;;;43.03;20.33;;;;;;;8.42;52.56;94108.09;5012828;28;20395;-81
2022/03/27 07:03:54;;;;;;;40.80;20.35;;;;;;;9.14;50.03;94126.47;5010642;28;20087;-79
2022/03/27 07:06:21;;;;;;;38.90;17.38;;;;;;;9.59;49.70;94135.88;5012877;28;21045;-79
2022/03/27 07:08:48;;;;;;;38.38;19.42;;;;;;;9.97;47.26;94143.38;5012667;28;21133;-80
2022/03/27 07:11:15;;;;;;;37.10;17.77;;;;;;;9.82;48.25;94145.19;5012751;28;20041;-80
2022/03/27 07:13:42;;;;;;;35.75;17.30;;;;;;;9.80;47.44;94065.03;5012733;28;20069;-80
2022/03/27 07:16:10;;;;;;;37.40;18.27;;;;;;;10.25;45.69;94127.25;5012433;28;20054;-80
2022/03/27 07:18:37;;;;;;;43.25;21.83;;;;;;;9.58;46.99;94137.63;5012289;28;20558;-80
2022/03/27 07:21:05;;;;;;;46.53;21.60;;;;;;;9.30;48.37;94152.91;5028138;28;20056;-80
2022/03/27 07:23:32;;;;;;;49.20;22.45;;;;;;;9.70;47.86;94130.28;5031962;28;20045;-81
2022/03/27 07:25:59;;;;;;;47.33;22.63;;;;;;;10.09;47.19;94140.34;5032412;28;21682;-78
2022/03/27 07:28:30;;;;;;;49.97;21.77;;;;;;;10.52;48.33;94136.97;5031799;28;20479;-79
2022/03/27 07:30:58;;;;;;;50.47;22.23;;;;;;;10.65;45.29;94142.19;5032556;28;20136;-79
2022/03/27 07:33:25;;;;;;;39.50;19.60;;;;;;;10.92;45.54;94139.81;5027218;28;20121;-79
2022/03/27 07:35:52;;;;;;;42.70;19.20;;;;;;;11.34;45.44;94124.41;5011772;28;20121;-79
2022/03/27 07:38:21;;;;;;;38.33;17.63;;;;;;;11.38;44.36;94139.47;5012002;28;20042;-79
2022/03/27 07:40:48;;;;;;;44.03;20.95;;;;;;;11.70;43.81;94114.03;5011909;28;20096;-78
2022/03/27 07:43:15;;;;;;;37.58;18.13;;;;;;;12.20;44.04;94107.81;5011720;28;20491;-78
2022/03/27 07:45:42;;;;;;;37.85;17.02;;;;;;;12.75;42.69;94130.81;5012074;28;20061;-78
2022/03/27 07:48:09;;;;;;;37.60;16.50;;;;;;;12.98;42.43;94103.00;5012134;28;20050;-79
2022/03/27 07:50:37;;;;;;;25.30;12.18;;;;;;;13.23;39.28;94075.56;5011958;28;20045;-80
2022/03/27 07:53:05;;;;;;;26.30;11.02;;;;;;;13.83;36.59;94107.25;5011518;28;20057;-79
2022/03/27 07:55:34;;;;;;;24.05;10.85;;;;;;;14.39;37.26;94119.63;5011593;28;20403;-80
2022/03/27 07:58:02;;;;;;;20.73;11.18;;;;;;;14.75;37.08;94123.34;5011407;28;20037;-80
2022/03/27 08:00:29;;;;;;;20.63;9.30;;;;;;;14.37;37.05;94039.72;5011311;28;20137;-79
2022/03/27 08:02:56;;;;;;;17.50;8.57;;;;;;;15.12;35.25;94106.25;5011741;28;20148;-79
2022/03/27 08:05:23;;;;;;;20.52;8.65;;;;;;;15.47;34.65;94127.19;5011754;28;20041;-79
2022/03/27 08:07:50;;;;;;;17.92;7.90;;;;;;;15.64;33.80;94124.00;5010792;28;20404;-78
2022/03/27 08:10:17;;;;;;;15.65;7.47;;;;;;;15.54;32.13;94126.31;5011222;28;20053;-78
2022/03/27 08:12:46;;;;;;;16.00;7.80;;;;;;;15.59;33.08;94119.47;5011238;28;20537;-79
2022/03/27 08:15:13;;;;;;;15.05;7.60;;;;;;;15.83;33.65;94123.97;5011179;28;20053;-78
2022/03/27 08:17:40;;;;;;;13.45;7.55;;;;;;;15.93;33.17;94134.66;5010982;28;20057;-78
2022/03/27 08:20:08;;;;;;;13.32;6.35;;;;;;;16.11;32.18;94133.00;5010759;28;20403;-79
2022/03/27 08:22:35;;;;;;;11.02;6.68;;;;;;;16.21;31.99;94130.66;5010985;28;20042;-78
2022/03/27 08:25:02;;;;;;;12.88;7.10;;;;;;;16.25;31.17;94133.59;5011213;28;20439;-78
2022/03/27 08:27:30;;;;;;;12.82;7.30;;;;;;;15.80;31.26;94119.22;5011213;28;20541;-78
2022/03/27 08:29:58;;;;;;;20.00;7.63;;;;;;;16.21;31.84;94124.69;5010694;28;20495;-79
2022/03/27 08:32:25;;;;;;;15.93;7.85;;;;;;;16.15;30.32;94101.22;5011502;28;20119;-79
2022/03/27 08:34:52;;;;;;;14.77;8.43;;;;;;;16.04;30.89;94112.34;5011018;28;20064;-79
2022/03/27 08:37:19;;;;;;;17.00;8.50;;;;;;;16.16;30.61;94125.38;5010956;28;20050;-79
2022/03/27 08:39:46;;;;;;;12.70;7.82;;;;;;;15.66;31.77;94101.28;5010909;28;20395;-79
2022/03/27 08:42:16;;;;;;;20.70;9.35;;;;;;;16.09;31.98;94106.50;5010591;28;20042;-79
2022/03/27 08:44:43;;;;;;;16.80;8.20;;;;;;;16.29;31.70;94125.16;5010726;28;20096;-79
2022/03/27 08:47:17;;;;;;;17.25;8.00;;;;;;;16.24;31.01;94108.69;5010567;28;20502;-79
2022/03/27 08:49:49;;;;;;;18.33;9.05;;;;;;;16.33;30.97;94098.78;4996847;28;20056;-78
2022/03/27 08:52:42;;;;;;;14.98;8.13;;;;;;;16.45;31.45;94093.59;4990216;28;20046;-78
2022/03/27 08:55:13;;;;;;;17.58;8.27;;;;;;;15.95;30.36;94005.66;4990357;28;20046;-78
2022/03/27 08:57:56;;;;;;;17.25;8.05;;;;;;;16.63;30.98;94090.94;4990313;28;20058;-79
2022/03/27 09:00:23;;;;;;;17.67;8.38;;;;;;;16.05;30.11;94102.78;4990798;28;20133;-78
2022/03/27 09:02:51;;;;;;;18.98;8.15;;;;;;;15.58;32.10;94106.75;4990833;28;20484;-79
2022/03/27 09:05:22;;;;;;;20.70;7.45;;;;;;;15.92;31.91;94101.91;4990582;28;20050;-79
2022/03/27 09:07:49;;;;;;;16.08;8.68;;;;;;;15.72;31.08;94082.28;5001242;28;20061;-78
2022/03/27 09:10:17;;;;;;;16.33;8.18;;;;;;;15.57;32.43;94105.16;5010126;28;20054;-78
2022/03/27 09:12:45;;;;;;;14.30;8.50;;;;;;;15.66;30.57;94106.47;5010016;28;20449;-78
2022/03/27 09:15:13;;;;;;;17.10;8.38;;;;;;;15.12;31.87;94080.38;5010994;28;20520;-78
2022/03/27 09:17:58;;;;;;;17.83;8.93;;;;;;;15.89;31.13;94099.78;5010490;28;20038;-79
2022/03/27 09:20:36;;;;;;;17.42;8.20;;;;;;;15.50;30.76;94094.88;5020673;28;20045;-78
2022/03/27 09:23:21;;;;;;;14.32;7.80;;;;;;;15.99;31.36;94075.94;5029683;28;20494;-79
2022/03/27 09:25:52;;;;;;;16.67;8.27;;;;;;;15.92;30.63;94070.81;5029500;28;20140;-78
2022/03/27 09:28:31;;;;;;;20.85;7.93;;;;;;;16.53;30.45;94083.69;5029528;28;20061;-78
2022/03/27 09:30:59;;;;;;;15.90;7.50;;;;;;;15.98;30.26;94062.19;5029690;28;20046;-78
2022/03/27 09:33:48;;;;;;;18.73;8.35;;;;;;;16.46;30.57;94087.41;5009762;28;20411;-78
2022/03/27 09:36:21;;;;;;;14.82;7.15;;;;;;;15.97;30.07;94072.81;5008412;28;20042;-78
2022/03/27 09:39:01;;;;;;;16.92;8.35;;;;;;;16.06;30.40;94042.19;5009914;28;20054;-78
2022/03/27 09:41:34;;;;;;;14.93;8.50;;;;;;;16.53;29.73;94065.53;5009555;28;20045;-79
2022/03/27 09:44:02;;;;;;;16.00;8.10;;;;;;;16.50;28.86;94050.44;5009561;28;20490;-79
2022/03/27 09:46:47;;;;;;;18.02;8.40;;;;;;;16.85;30.22;94025.47;5009923;28;20479;-80
2022/03/27 09:49:16;;;;;;;18.50;8.15;;;;;;;17.49;29.88;94055.00;5009623;28;20092;-79
2022/03/27 09:51:58;;;;;;;16.90;8.20;;;;;;;17.24;28.26;94019.78;5009622;28;20073;-79
2022/03/27 09:54:27;;;;;;;15.98;7.68;;;;;;;17.46;28.22;94001.72;5009323;28;20046;-79
2022/03/27 09:56:54;;;;;;;16.10;8.55;;;;;;;17.55;27.86;94038.50;5009546;28;20050;-80
2022/03/27 09:59:30;;;;;;;12.98;7.38;;;;;;;17.54;27.94;94047.31;5009710;28;20125;-79
2022/03/27 10:02:17;;;;;;;14.88;7.35;;;;;;;17.49;26.82;94049.81;5009330;28;20096;-80
2022/03/27 10:04:53;;;;;;;14.35;8.07;;;;;;;17.47;27.41;94046.69;5009319;28;20042;-80
2022/03/27 10:07:22;;;;;;;14.30;7.90;;;;;;;16.78;27.13;93965.13;5009450;28;20054;-80
2022/03/27 10:09:49;;;;;;;16.25;7.20;;;;;;;17.67;27.28;94042.88;5009836;28;20064;-80
2022/03/27 10:12:17;;;;;;;16.20;7.10;;;;;;;17.69;27.82;94015.63;5009707;28;20049;-81
2022/03/27 10:14:46;;;;;;;13.02;6.82;;;;;;;17.30;27.06;94011.06;5009572;28;20333;-79
2022/03/27 10:17:15;;;;;;;16.35;6.65;;;;;;;17.70;27.04;94038.00;5009044;28;20520;-80
2022/03/27 10:19:47;;;;;;;13.23;7.40;;;;;;;17.41;26.30;94019.81;5014371;28;20037;-79
2022/03/27 10:22:21;;;;;;;15.80;7.97;;;;;;;17.06;25.75;93958.44;5029455;28;20045;-80
2022/03/27 10:24:51;;;;;;;14.52;6.75;;;;;;;17.64;26.29;94012.97;5029077;28;20041;-79
2022/03/27 10:27:19;;;;;;;15.02;6.65;;;;;;;17.62;26.77;94018.38;5028945;28;20077;-80
2022/03/27 10:29:48;;;;;;;17.17;7.80;;;;;;;17.72;26.38;94014.38;5029469;28;20084;-80
2022/03/27 10:32:15;;;;;;;14.23;7.32;;;;;;;17.41;26.76;94019.03;5032796;28;20507;-79
2022/03/27 10:34:51;;;;;;;17.17;8.80;;;;;;;17.27;26.07;94029.69;5017607;28;20054;-79
2022/03/27 10:37:29;;;;;;;20.20;7.18;;;;;;;17.76;25.89;94029.28;5013485;28;20042;-79
2022/03/27 10:40:02;;;;;;;17.17;7.85;;;;;;;17.52;25.88;94002.63;5013567;28;20119;-80
2022/03/27 10:42:39;;;;;;;14.07;7.57;;;;;;;17.76;25.88;93987.69;5012542;28;20042;-80
2022/03/27 10:45:11;;;;;;;15.23;6.43;;;;;;;18.37;26.55;94003.72;5013224;28;20395;-80
2022/03/27 10:47:38;;;;;;;11.98;6.28;;;;;;;18.47;25.16;93998.63;5013194;28;20046;-80
2022/03/27 10:50:25;;;;;;;11.10;6.40;;;;;;;18.28;25.12;94006.69;5012977;28;20046;-80
2022/03/27 10:53:10;;;;;;;14.95;7.88;;;;;;;17.99;25.14;94008.56;5013040;28;20136;-79
2022/03/27 10:55:39;;;;;;;14.88;7.10;;;;;;;18.00;25.58;94012.72;5013239;28;20046;-80
2022/03/27 10:58:28;;;;;;;13.73;6.60;;;;;;;18.34;26.02;94006.78;5012981;28;20139;-79
2022/03/27 11:00:55;;;;;;;9.93;6.53;;;;;;;18.00;25.21;93984.94;5012811;28;20128;-80
2022/03/27 11:03:43;;;;;;;12.57;7.30;;;;;;;18.11;25.12;93985.13;5012815;28;20041;-79
2022/03/27 11:06:23;;;;;;;10.60;5.65;;;;;;;18.39;24.04;93994.66;5012562;28;20696;-80
2022/03/27 11:08:53;;;;;;;12.38;5.07;;;;;;;18.52;24.66;93990.91;5012918;28;20484;-79
2022/03/27 11:12:03;;;;;;;10.40;5.63;;;;;;;18.43;24.26;93994.94;5013162;28;20042;-79
2022/03/27 11:15:00;;;;;;;14.02;6.90;;;;;;;18.17;24.78;93981.56;5012971;28;20145;-80
2022/03/27 11:17:35;;;;;;;13.52;6.60;;;;;;;17.54;25.04;93946.00;5012889;28;20050;-80
2022/03/27 11:20:05;;;;;;;11.85;5.80;;;;;;;17.53;24.70;93973.03;5019894;28;20045;-79
2022/03/27 11:22:51;;;;;;;11.25;6.25;;;;;;;17.61;24.66;93943.28;5032234;28;20045;-81
2022/03/27 11:25:46;;;;;;;11.05;6.22;;;;;;;17.73;24.54;93964.00;5032489;28;20042;-80
2022/03/27 11:28:14;;;;;;;13.70;6.13;;;;;;;17.80;24.38;93969.81;5029565;28;20045;-79
2022/03/27 11:31:22;;;;;;;11.07;6.03;;;;;;;17.50;24.27;93934.53;5032126;28;20076;-80
2022/03/27 11:34:19;;;;;;;12.73;6.22;;;;;;;17.74;24.67;93924.75;5023674;28;20053;-79
2022/03/27 11:36:49;;;;;;;18.35;6.15;;;;;;;17.72;24.63;93945.00;5006929;28;20061;-79
2022/03/27 11:39:32;;;;;;;16.73;6.18;;;;;;;17.85;25.28;93950.91;5012330;28;20439;-80
2022/03/27 11:42:32;;;;;;;14.43;6.57;;;;;;;17.72;24.28;93931.22;5008973;28;20483;-80